createdAt,value
2018-07-23T00:00:26.445Z,14.53
2018-07-23T00:01:29.965Z,15.18
2018-07-23T00:02:34.364Z,15.08
2018-07-23T00:03:37.924Z,15.08
2018-07-23T00:04:41.637Z,18.00
2018-07-23T00:05:45.418Z,12.05
2018-07-23T00:06:48.943Z,17.07
2018-07-23T00:07:53.238Z,15.85
2018-07-23T00:08:57.180Z,17.75
2018-07-23T00:10:00.784Z,15.00
2018-07-23T00:11:05.097Z,15.03
2018-07-23T00:12:08.935Z,16.93
2018-07-23T00:13:15.399Z,15.18
2018-07-23T00:14:20.907Z,15.10
2018-07-23T00:15:24.543Z,14.53
2018-07-23T00:16:28.121Z,14.73
2018-07-23T00:17:32.695Z,17.32
2018-07-23T00:18:35.897Z,15.38
2018-07-23T00:19:39.456Z,15.03
2018-07-23T00:20:43.128Z,15.65
2018-07-23T00:21:47.353Z,14.68
2018-07-23T00:22:50.825Z,13.13
2018-07-23T00:23:54.495Z,16.45
2018-07-23T00:24:58.021Z,16.42
2018-07-23T00:26:02.057Z,15.18
2018-07-23T00:27:05.563Z,14.98
2018-07-23T00:28:09.456Z,16.70
2018-07-23T00:29:15.372Z,15.23
2018-07-23T00:30:19.225Z,16.42
2018-07-23T00:31:22.784Z,15.40
2018-07-23T00:32:26.433Z,16.25
2018-07-23T00:33:29.894Z,15.20
2018-07-23T00:34:33.446Z,16.07
2018-07-23T00:35:36.991Z,17.80
2018-07-23T00:36:40.502Z,17.55
2018-07-23T00:37:44.464Z,16.27
2018-07-23T00:38:47.915Z,15.75
2018-07-23T00:39:51.710Z,16.65
2018-07-23T00:40:55.222Z,14.90
2018-07-23T00:41:58.812Z,16.93
2018-07-23T00:43:02.485Z,15.70
2018-07-23T00:44:06.540Z,17.57
2018-07-23T00:45:11.797Z,16.40
2018-07-23T00:46:15.293Z,15.50
2018-07-23T00:47:19.404Z,16.23
2018-07-23T00:48:22.951Z,16.75
2018-07-23T00:49:26.598Z,17.57
2018-07-23T00:50:30.498Z,14.98
2018-07-23T00:51:35.121Z,14.45
2018-07-23T00:52:39.409Z,18.92
2018-07-23T00:53:42.883Z,15.08
2018-07-23T00:54:46.426Z,18.73
2018-07-23T00:55:50.202Z,17.42
2018-07-23T00:56:53.709Z,16.15
2018-07-23T00:57:57.265Z,16.12
2018-07-23T00:59:00.846Z,16.97
2018-07-23T01:00:04.862Z,14.65
2018-07-23T01:01:08.464Z,18.70
2018-07-23T01:02:13.046Z,17.37
2018-07-23T01:03:16.699Z,18.87
2018-07-23T01:04:20.768Z,17.37
2018-07-23T01:05:24.423Z,16.80
2018-07-23T01:06:27.958Z,15.98
2018-07-23T01:07:31.463Z,16.97
2018-07-23T01:08:35.009Z,17.07
2018-07-23T01:09:38.501Z,15.90
2018-07-23T01:10:42.054Z,18.12
2018-07-23T01:11:45.552Z,19.57
2018-07-23T01:12:49.043Z,17.62
2018-07-23T01:13:52.525Z,20.27
2018-07-23T01:14:55.995Z,16.95
2018-07-23T01:15:59.641Z,17.90
2018-07-23T01:17:03.377Z,18.70
2018-07-23T01:18:07.043Z,18.23
2018-07-23T01:19:10.750Z,20.05
2018-07-23T01:20:14.307Z,20.35
2018-07-23T01:21:17.887Z,16.77
2018-07-23T01:22:21.735Z,20.17
2018-07-23T01:23:25.382Z,17.85
2018-07-23T01:24:28.981Z,19.90
2018-07-23T01:25:32.497Z,20.23
2018-07-23T01:26:36.153Z,19.98
2018-07-23T01:27:39.654Z,17.52
2018-07-23T01:28:43.197Z,20.62
2018-07-23T01:29:46.749Z,18.27
2018-07-23T01:30:50.299Z,20.05
2018-07-23T01:31:53.841Z,20.85
2018-07-23T01:32:57.414Z,19.05
2018-07-23T01:34:01.027Z,20.15
2018-07-23T01:35:04.670Z,18.37
2018-07-23T01:36:08.291Z,18.50
2018-07-23T01:37:11.892Z,19.50
2018-07-23T01:38:15.440Z,21.48
2018-07-23T01:39:18.926Z,23.50
2018-07-23T01:40:22.459Z,20.23
2018-07-23T01:41:26.075Z,18.50
2018-07-23T01:42:29.635Z,19.75
2018-07-23T01:43:33.371Z,22.58
2018-07-23T01:44:37.422Z,19.17
2018-07-23T01:45:40.974Z,17.25
2018-07-23T01:46:44.507Z,18.52
2018-07-23T01:47:47.759Z,19.77
2018-07-23T01:48:51.306Z,20.12
2018-07-23T01:49:54.857Z,17.95
2018-07-23T01:50:58.455Z,17.50
2018-07-23T01:52:02.034Z,18.17
2018-07-23T01:53:05.977Z,16.05
2018-07-23T01:54:09.505Z,17.73
2018-07-23T01:55:13.299Z,18.80
2018-07-23T01:56:16.930Z,16.90
2018-07-23T01:57:20.439Z,19.52
2018-07-23T01:58:23.996Z,19.62
2018-07-23T01:59:27.559Z,17.77
2018-07-23T02:00:31.150Z,20.12
2018-07-23T02:01:34.704Z,18.10
2018-07-23T02:02:38.183Z,18.90
2018-07-23T02:03:42.299Z,16.30
2018-07-23T02:04:45.836Z,19.10
2018-07-23T02:05:49.424Z,18.92
2018-07-23T02:06:52.977Z,20.10
2018-07-23T02:07:56.549Z,19.75
2018-07-23T02:09:00.112Z,18.65
2018-07-23T02:10:03.810Z,19.77
2018-07-23T02:11:07.811Z,19.10
2018-07-23T02:12:11.419Z,15.60
2018-07-23T02:13:15.394Z,16.25
2018-07-23T02:14:18.930Z,19.15
2018-07-23T02:15:22.531Z,18.17
2018-07-23T02:16:26.067Z,16.67
2018-07-23T02:17:29.613Z,18.35
2018-07-23T02:18:33.169Z,18.92
2018-07-23T02:19:36.902Z,16.05
2018-07-23T02:20:40.437Z,22.32
2018-07-23T02:21:43.654Z,20.85
2018-07-23T02:22:47.168Z,18.27
2018-07-23T02:23:50.749Z,17.52
2018-07-23T02:24:54.322Z,16.42
2018-07-23T02:25:57.843Z,20.80
2018-07-23T02:27:01.386Z,20.48
2018-07-23T02:28:04.961Z,18.90
2018-07-23T02:29:08.548Z,20.48
2018-07-23T02:30:12.186Z,20.85
2018-07-23T02:31:16.173Z,18.90
2018-07-23T02:32:19.799Z,21.15
2018-07-23T02:33:23.442Z,21.02
2018-07-23T02:34:26.981Z,20.20
2018-07-23T02:35:30.518Z,19.52
2018-07-23T02:36:34.046Z,21.17
2018-07-23T02:37:37.586Z,20.32
2018-07-23T02:38:41.121Z,19.60
2018-07-23T02:39:44.639Z,18.82
2018-07-23T02:40:48.143Z,20.68
2018-07-23T02:41:51.665Z,17.85
2018-07-23T02:42:55.208Z,20.45
2018-07-23T02:43:58.750Z,20.55
2018-07-23T02:45:02.264Z,20.57
2018-07-23T02:46:06.030Z,19.60
2018-07-23T02:47:10.234Z,21.30
2018-07-23T02:48:13.872Z,21.10
2018-07-23T02:49:17.406Z,22.27
2018-07-23T02:50:20.934Z,18.60
2018-07-23T02:51:24.502Z,22.22
2018-07-23T02:52:28.020Z,18.10
2018-07-23T02:53:31.691Z,22.73
2018-07-23T02:54:35.298Z,21.25
2018-07-23T02:55:38.834Z,19.98
2018-07-23T02:56:42.329Z,18.85
2018-07-23T02:57:45.855Z,18.27
2018-07-23T02:58:49.414Z,25.35
2018-07-23T02:59:52.923Z,20.12
2018-07-23T03:00:56.499Z,23.40
2018-07-23T03:02:00.018Z,25.30
2018-07-23T03:03:03.566Z,22.15
2018-07-23T03:04:07.218Z,22.32
2018-07-23T03:05:11.853Z,20.43
2018-07-23T03:06:15.486Z,21.55
2018-07-23T03:07:19.046Z,21.93
2018-07-23T03:08:22.629Z,23.67
2018-07-23T03:09:26.146Z,26.57
2018-07-23T03:10:29.680Z,26.37
2018-07-23T03:11:33.206Z,28.15
2018-07-23T03:12:36.746Z,24.47
2018-07-23T03:13:40.231Z,27.55
2018-07-23T03:14:43.787Z,22.93
2018-07-23T03:15:47.376Z,27.30
2018-07-23T03:16:50.929Z,24.65
2018-07-23T03:17:54.522Z,24.25
2018-07-23T03:18:58.117Z,26.62
2018-07-23T03:20:01.732Z,27.13
2018-07-23T03:21:05.252Z,25.10
2018-07-23T03:22:08.754Z,25.20
2018-07-23T03:23:12.702Z,24.75
2018-07-23T03:24:16.298Z,23.12
2018-07-23T03:25:19.834Z,26.12
2018-07-23T03:26:23.376Z,26.27
2018-07-23T03:27:26.878Z,24.45
2018-07-23T03:28:30.367Z,28.52
2018-07-23T03:29:33.578Z,26.00
2018-07-23T03:30:37.193Z,29.77
2018-07-23T03:31:40.755Z,30.12
2018-07-23T03:32:44.282Z,28.83
2018-07-23T03:33:47.806Z,27.73
2018-07-23T03:34:51.365Z,27.65
2018-07-23T03:35:54.900Z,26.77
2018-07-23T03:36:58.440Z,30.00
2018-07-23T03:38:02.027Z,30.27
2018-07-23T03:39:08.030Z,26.45
2018-07-23T03:40:11.938Z,28.20
2018-07-23T03:41:15.474Z,32.75
2018-07-23T03:42:19.001Z,30.27
2018-07-23T03:43:22.568Z,30.02
2018-07-23T03:44:26.067Z,34.70
2018-07-23T03:45:29.616Z,28.90
2018-07-23T03:46:33.180Z,30.85
2018-07-23T03:47:36.830Z,32.60
2018-07-23T03:48:40.332Z,31.42
2018-07-23T03:49:43.849Z,32.05
2018-07-23T03:50:47.381Z,29.92
2018-07-23T03:51:50.957Z,28.47
2018-07-23T03:52:54.500Z,30.70
2018-07-23T03:53:58.147Z,33.75
2018-07-23T03:55:02.134Z,32.70
2018-07-23T03:56:06.018Z,31.07
2018-07-23T03:57:10.220Z,31.55
2018-07-23T03:58:13.893Z,32.10
2018-07-23T03:59:17.459Z,29.72
2018-07-23T04:00:21.021Z,35.45
2018-07-23T04:01:24.621Z,32.73
2018-07-23T04:02:28.193Z,31.35
2018-07-23T04:03:31.813Z,30.40
2018-07-23T04:04:35.253Z,31.65
2018-07-23T04:05:38.851Z,30.90
2018-07-23T04:06:42.585Z,29.42
2018-07-23T04:07:46.156Z,32.48
2018-07-23T04:08:49.760Z,29.50
2018-07-23T04:09:53.361Z,29.40
2018-07-23T04:10:56.917Z,29.92
2018-07-23T04:12:00.450Z,31.33
2018-07-23T04:13:04.038Z,31.12
2018-07-23T04:14:07.650Z,30.57
2018-07-23T04:15:11.728Z,30.35
2018-07-23T04:16:15.278Z,28.87
2018-07-23T04:17:18.905Z,33.18
2018-07-23T04:18:22.384Z,31.68
2018-07-23T04:19:25.965Z,29.95
2018-07-23T04:20:29.922Z,31.60
2018-07-23T04:21:33.408Z,31.93
2018-07-23T04:22:37.071Z,30.20
2018-07-23T04:23:40.598Z,28.75
2018-07-23T04:24:44.164Z,28.12
2018-07-23T04:25:47.649Z,29.87
2018-07-23T04:26:51.197Z,25.20
2018-07-23T04:27:54.725Z,26.33
2018-07-23T04:28:58.313Z,26.07
2018-07-23T04:30:01.835Z,23.57
2018-07-23T04:31:05.442Z,24.85
2018-07-23T04:32:08.969Z,22.77
2018-07-23T04:33:12.915Z,22.07
2018-07-23T04:34:16.513Z,21.40
2018-07-23T04:35:20.126Z,24.50
2018-07-23T04:36:23.634Z,17.70
2018-07-23T04:37:27.148Z,19.98
2018-07-23T04:38:30.674Z,20.80
2018-07-23T04:39:34.221Z,20.32
2018-07-23T04:40:37.710Z,17.23
2018-07-23T04:41:41.197Z,19.23
2018-07-23T04:42:45.001Z,18.50
2018-07-23T04:43:48.580Z,19.07
2018-07-23T04:44:52.117Z,20.57
2018-07-23T04:45:55.634Z,17.52
2018-07-23T04:46:59.241Z,17.17
2018-07-23T04:48:02.758Z,18.95
2018-07-23T04:49:06.255Z,16.37
2018-07-23T04:50:09.892Z,18.62
2018-07-23T04:51:14.484Z,19.65
2018-07-23T04:52:18.147Z,18.40
2018-07-23T04:53:21.707Z,19.10
2018-07-23T04:54:25.217Z,15.78
2018-07-23T04:55:28.787Z,16.32
2018-07-23T04:56:32.389Z,16.95
2018-07-23T04:57:35.865Z,16.05
2018-07-23T04:58:39.354Z,16.70
2018-07-23T04:59:43.121Z,15.43
2018-07-23T05:00:46.701Z,15.32
2018-07-23T05:01:50.245Z,15.95
2018-07-23T05:02:53.933Z,13.88
2018-07-23T05:03:57.465Z,16.73
2018-07-23T05:05:01.029Z,13.58
2018-07-23T05:06:04.578Z,15.25
2018-07-23T05:07:08.106Z,14.35
2018-07-23T05:08:12.125Z,15.32
2018-07-23T05:09:15.727Z,13.83
2018-07-23T05:10:19.505Z,13.78
2018-07-23T05:11:23.190Z,14.53
2018-07-23T05:12:26.938Z,13.95
2018-07-23T05:13:30.653Z,14.65
2018-07-23T05:14:34.282Z,15.05
2018-07-23T05:15:38.050Z,14.43
2018-07-23T05:16:41.633Z,13.30
2018-07-23T05:17:45.242Z,11.03
2018-07-23T05:18:49.037Z,14.33
2018-07-23T05:19:52.613Z,14.35
2018-07-23T05:20:56.278Z,14.40
2018-07-23T05:21:59.913Z,13.88
2018-07-23T05:23:03.487Z,14.38
2018-07-23T05:24:07.201Z,11.68
2018-07-23T05:25:12.278Z,13.15
2018-07-23T05:26:15.981Z,13.40
2018-07-23T05:27:19.553Z,15.30
2018-07-23T05:28:23.353Z,12.88
2018-07-23T05:29:26.918Z,14.00
2018-07-23T05:30:30.473Z,12.98
2018-07-23T05:31:34.278Z,15.18
2018-07-23T05:32:37.845Z,13.90
2018-07-23T05:33:41.428Z,14.33
2018-07-23T05:34:45.152Z,15.45
2018-07-23T05:35:48.884Z,14.78
2018-07-23T05:36:52.447Z,14.40
2018-07-23T05:37:55.982Z,13.98
2018-07-23T05:38:59.514Z,13.25
2018-07-23T05:40:03.080Z,14.87
2018-07-23T05:41:06.968Z,13.83
2018-07-23T05:42:10.834Z,13.88
2018-07-23T05:43:15.127Z,13.68
2018-07-23T05:44:18.689Z,14.40
2018-07-23T05:45:22.378Z,15.18
2018-07-23T05:46:26.100Z,13.13
2018-07-23T05:47:29.756Z,12.45
2018-07-23T05:48:33.423Z,13.48
2018-07-23T05:49:37.019Z,14.65
2018-07-23T05:50:40.574Z,14.98
2018-07-23T05:51:44.194Z,15.88
2018-07-23T05:52:47.884Z,16.25
2018-07-23T05:53:51.635Z,17.10
2018-07-23T05:54:55.205Z,16.67
2018-07-23T05:55:58.846Z,15.75
2018-07-23T05:57:02.476Z,16.62
2018-07-23T05:58:05.980Z,17.05
2018-07-23T05:59:09.622Z,13.88
2018-07-23T06:00:13.749Z,12.80
2018-07-23T06:01:17.354Z,14.60
2018-07-23T06:02:20.949Z,13.85
2018-07-23T06:03:24.637Z,15.18
2018-07-23T06:04:28.229Z,16.65
2018-07-23T06:05:31.692Z,14.53
2018-07-23T06:06:35.367Z,14.63
2018-07-23T06:07:39.926Z,12.70
2018-07-23T06:08:44.506Z,13.45
2018-07-23T06:09:48.074Z,12.58
2018-07-23T06:10:52.931Z,14.00
2018-07-23T06:11:56.752Z,13.13
2018-07-23T06:13:00.349Z,14.00
2018-07-23T06:14:04.101Z,15.00
2018-07-23T06:15:08.718Z,13.20
2018-07-23T06:16:16.273Z,14.23
2018-07-23T06:17:20.440Z,14.95
2018-07-23T06:18:23.890Z,14.20
2018-07-23T06:19:27.626Z,15.58
2018-07-23T06:20:31.143Z,13.93
2018-07-23T06:21:34.767Z,15.20
2018-07-23T06:22:38.701Z,15.85
2018-07-23T06:23:42.428Z,14.93
2018-07-23T06:24:46.267Z,14.18
2018-07-23T06:25:50.031Z,13.88
2018-07-23T06:26:53.689Z,15.40
2018-07-23T06:27:57.299Z,16.75
2018-07-23T06:29:00.971Z,16.05
2018-07-23T06:30:07.085Z,15.03
2018-07-23T06:31:11.711Z,14.25
2018-07-23T06:32:17.479Z,15.55
2018-07-23T06:33:20.649Z,13.28
2018-07-23T06:34:27.064Z,14.15
2018-07-23T06:35:30.629Z,11.38
2018-07-23T06:36:34.140Z,14.00
2018-07-23T06:37:38.048Z,13.85
2018-07-23T06:38:42.342Z,15.50
2018-07-23T06:39:46.031Z,13.13
2018-07-23T06:40:49.564Z,13.85
2018-07-23T06:41:53.118Z,15.60
2018-07-23T06:42:56.650Z,15.05
2018-07-23T06:44:00.181Z,14.38
2018-07-23T06:45:03.901Z,14.70
2018-07-23T06:46:07.377Z,12.30
2018-07-23T06:47:13.676Z,14.63
2018-07-23T06:48:18.701Z,15.00
2018-07-23T06:49:22.168Z,13.08
2018-07-23T06:50:26.286Z,11.55
2018-07-23T06:51:30.073Z,14.07
2018-07-23T06:52:33.548Z,15.90
2018-07-23T06:53:37.049Z,16.85
2018-07-23T06:54:40.748Z,15.20
2018-07-23T06:55:44.208Z,13.72
2018-07-23T06:56:47.687Z,15.38
2018-07-23T06:57:51.297Z,13.30
2018-07-23T06:58:55.402Z,12.70
2018-07-23T06:59:58.905Z,14.05
2018-07-23T07:01:02.516Z,10.90
2018-07-23T07:02:06.368Z,10.65
2018-07-23T07:03:10.187Z,10.82
2018-07-23T07:04:14.760Z,10.80
2018-07-23T07:05:18.942Z,12.35
2018-07-23T07:06:22.239Z,14.53
2018-07-23T07:07:25.841Z,13.80
2018-07-23T07:08:29.298Z,13.32
2018-07-23T07:09:32.774Z,9.18
2018-07-23T07:10:36.346Z,10.58
2018-07-23T07:11:39.898Z,8.33
2018-07-23T07:12:43.458Z,12.43
2018-07-23T07:13:47.173Z,10.08
2018-07-23T07:14:50.797Z,10.70
2018-07-23T07:15:54.332Z,11.43
2018-07-23T07:16:58.402Z,9.55
2018-07-23T07:18:01.848Z,9.30
2018-07-23T07:19:05.502Z,9.68
2018-07-23T07:20:09.054Z,10.88
2018-07-23T07:21:13.636Z,10.10
2018-07-23T07:22:18.507Z,9.58
2018-07-23T07:23:22.014Z,7.90
2018-07-23T07:24:25.497Z,9.73
2018-07-23T07:25:28.984Z,8.03
2018-07-23T07:26:33.390Z,10.10
2018-07-23T07:27:36.963Z,9.18
2018-07-23T07:28:40.530Z,8.58
2018-07-23T07:29:44.561Z,10.05
2018-07-23T07:30:48.141Z,8.70
2018-07-23T07:31:51.725Z,9.73
2018-07-23T07:32:55.314Z,9.13
2018-07-23T07:33:58.861Z,8.58
2018-07-23T07:35:02.345Z,10.48
2018-07-23T07:36:06.044Z,10.63
2018-07-23T07:37:09.523Z,7.75
2018-07-23T07:38:16.208Z,8.75
2018-07-23T07:39:19.978Z,9.38
2018-07-23T07:40:23.489Z,9.30
2018-07-23T07:41:26.947Z,8.48
2018-07-23T07:42:30.408Z,9.38
2018-07-23T07:43:34.564Z,8.88
2018-07-23T07:44:38.098Z,7.80
2018-07-23T07:45:41.542Z,9.05
2018-07-23T07:46:45.124Z,9.03
2018-07-23T07:47:48.846Z,12.05
2018-07-23T07:48:52.434Z,9.20
2018-07-23T07:49:55.942Z,12.03
2018-07-23T07:50:59.353Z,10.13
2018-07-23T07:52:03.114Z,8.53
2018-07-23T07:53:06.786Z,8.30
2018-07-23T07:54:10.515Z,8.10
2018-07-23T07:55:14.010Z,7.78
2018-07-23T07:56:18.085Z,7.83
2018-07-23T07:57:21.583Z,7.53
2018-07-23T07:58:25.165Z,8.20
2018-07-23T07:59:28.655Z,7.72
2018-07-23T08:00:32.116Z,9.40
2018-07-23T08:01:36.055Z,7.55
2018-07-23T08:02:39.631Z,9.10
2018-07-23T08:03:43.304Z,7.53
2018-07-23T08:04:46.981Z,8.40
2018-07-23T08:05:50.633Z,8.40
2018-07-23T08:06:54.914Z,8.00
2018-07-23T08:07:58.443Z,7.08
2018-07-23T08:09:02.668Z,7.55
2018-07-23T08:10:06.510Z,6.53
2018-07-23T08:11:10.031Z,7.72
2018-07-23T08:12:16.599Z,9.78
2018-07-23T08:13:23.608Z,8.25
2018-07-23T08:14:27.128Z,8.18
2018-07-23T08:15:30.770Z,7.80
2018-07-23T08:16:34.346Z,7.92
2018-07-23T08:17:37.935Z,8.85
2018-07-23T08:18:41.457Z,7.22
2018-07-23T08:19:45.012Z,8.30
2018-07-23T08:20:48.684Z,6.17
2018-07-23T08:21:53.215Z,6.65
2018-07-23T08:22:56.711Z,9.25
2018-07-23T08:24:00.665Z,8.33
2018-07-23T08:25:04.382Z,7.67
2018-07-23T08:26:07.993Z,5.92
2018-07-23T08:27:14.172Z,8.15
2018-07-23T08:28:17.801Z,6.87
2018-07-23T08:29:21.419Z,6.30
2018-07-23T08:30:25.584Z,7.58
2018-07-23T08:31:30.284Z,8.10
2018-07-23T08:32:33.926Z,5.42
2018-07-23T08:33:37.544Z,6.87
2018-07-23T08:34:41.074Z,6.20
2018-07-23T08:35:45.168Z,7.22
2018-07-23T08:36:48.746Z,6.78
2018-07-23T08:37:52.366Z,6.62
2018-07-23T08:38:55.881Z,5.95
2018-07-23T08:39:59.158Z,6.65
2018-07-23T08:41:02.678Z,4.92
2018-07-23T08:42:06.285Z,5.45
2018-07-23T08:43:10.944Z,4.87
2018-07-23T08:44:19.565Z,5.53
2018-07-23T08:45:23.292Z,5.17
2018-07-23T08:46:27.332Z,4.87
2018-07-23T08:47:30.927Z,5.92
2018-07-23T08:48:34.380Z,5.35
2018-07-23T08:49:38.043Z,4.97
2018-07-23T08:50:41.653Z,4.90
2018-07-23T08:51:45.958Z,4.75
2018-07-23T08:52:49.459Z,4.30
2018-07-23T08:53:53.062Z,7.03
2018-07-23T08:54:56.725Z,5.15
2018-07-23T08:56:00.232Z,3.20
2018-07-23T08:57:03.770Z,5.20
2018-07-23T08:58:07.343Z,4.30
2018-07-23T08:59:13.356Z,5.65
2018-07-23T09:00:20.529Z,4.05
2018-07-23T09:01:24.006Z,4.22
2018-07-23T09:02:27.652Z,4.90
2018-07-23T09:03:31.353Z,4.35
2018-07-23T09:04:34.916Z,3.35
2018-07-23T09:05:38.444Z,4.62
2018-07-23T09:06:41.938Z,3.40
2018-07-23T09:07:45.476Z,3.15
2018-07-23T09:08:49.070Z,3.70
2018-07-23T09:09:52.552Z,4.53
2018-07-23T09:10:56.202Z,3.37
2018-07-23T09:12:00.489Z,2.77
2018-07-23T09:13:04.259Z,3.35
2018-07-23T09:14:08.171Z,3.08
2018-07-23T09:15:13.307Z,2.75
2018-07-23T09:16:18.311Z,2.85
2018-07-23T09:17:22.926Z,3.42
2018-07-23T09:18:26.469Z,2.50
2018-07-23T09:19:30.320Z,2.30
2018-07-23T09:20:33.812Z,2.33
2018-07-23T09:21:36.968Z,2.55
2018-07-23T09:22:40.572Z,2.67
2018-07-23T09:23:44.235Z,3.10
2018-07-23T09:24:47.699Z,3.10
2018-07-23T09:25:52.811Z,2.98
2018-07-23T09:26:56.350Z,2.72
2018-07-23T09:27:59.856Z,5.17
2018-07-23T09:29:04.352Z,4.25
2018-07-23T09:30:12.397Z,2.40
2018-07-23T09:31:18.456Z,3.17
2018-07-23T09:32:22.797Z,2.92
2018-07-23T09:33:26.934Z,2.87
2018-07-23T09:34:31.138Z,2.95
2018-07-23T09:35:36.110Z,3.50
2018-07-23T09:36:39.623Z,2.72
2018-07-23T09:37:43.382Z,2.65
2018-07-23T09:38:46.887Z,3.77
2018-07-23T09:39:50.604Z,3.83
2018-07-23T09:40:54.149Z,2.85
2018-07-23T09:41:57.680Z,3.85
2018-07-23T09:43:01.188Z,4.33
2018-07-23T09:44:04.668Z,3.30
2018-07-23T09:45:08.242Z,3.47
2018-07-23T09:46:13.054Z,2.83
2018-07-23T09:47:17.357Z,3.77
2018-07-23T09:48:21.126Z,2.90
2018-07-23T09:49:26.963Z,2.98
2018-07-23T09:50:31.134Z,3.12
2018-07-23T09:51:37.600Z,2.92
2018-07-23T09:52:41.197Z,3.58
2018-07-23T09:53:44.769Z,3.10
2018-07-23T09:54:48.434Z,2.55
2018-07-23T09:55:52.496Z,3.08
2018-07-23T09:56:55.940Z,3.10
2018-07-23T09:57:59.602Z,2.55
2018-07-23T09:59:03.160Z,3.25
2018-07-23T10:00:06.658Z,2.75
2018-07-23T10:01:12.183Z,2.72
2018-07-23T10:02:21.544Z,3.55
2018-07-23T10:03:25.237Z,2.95
2018-07-23T10:04:28.663Z,3.25
2018-07-23T10:05:32.194Z,3.33
2018-07-23T10:06:35.897Z,2.62
2018-07-23T10:07:39.596Z,4.25
2018-07-23T10:08:43.419Z,3.92
2018-07-23T10:09:47.019Z,3.12
2018-07-23T10:10:50.538Z,3.00
2018-07-23T10:11:54.021Z,3.22
2018-07-23T10:12:57.335Z,4.58
2018-07-23T10:14:00.822Z,3.62
2018-07-23T10:15:04.868Z,4.53
2018-07-23T10:16:08.570Z,4.22
2018-07-23T10:17:13.301Z,2.90
2018-07-23T10:18:19.279Z,2.77
2018-07-23T10:19:25.050Z,5.60
2018-07-23T10:20:28.631Z,4.00
2018-07-23T10:21:32.117Z,3.85
2018-07-23T10:22:35.612Z,4.85
2018-07-23T10:23:39.053Z,3.62
2018-07-23T10:24:42.602Z,7.90
2018-07-23T10:25:46.262Z,4.85
2018-07-23T10:26:50.346Z,4.92
2018-07-23T10:27:54.139Z,5.62
2018-07-23T10:28:57.708Z,4.85
2018-07-23T10:30:01.404Z,5.40
2018-07-23T10:31:04.940Z,3.90
2018-07-23T10:32:08.472Z,4.60
2018-07-23T10:33:13.787Z,5.03
2018-07-23T10:34:18.302Z,5.03
2018-07-23T10:35:26.853Z,5.10
2018-07-23T10:36:30.395Z,6.37
2018-07-23T10:37:33.869Z,4.28
2018-07-23T10:38:37.552Z,5.03
2018-07-23T10:39:41.136Z,4.37
2018-07-23T10:40:44.726Z,4.97
2018-07-23T10:41:48.348Z,5.03
2018-07-23T10:42:52.537Z,4.10
2018-07-23T10:43:56.234Z,4.62
2018-07-23T10:44:59.824Z,3.80
2018-07-23T10:46:03.572Z,5.85
2018-07-23T10:47:07.301Z,3.98
2018-07-23T10:48:14.220Z,4.17
2018-07-23T10:49:19.015Z,4.35
2018-07-23T10:50:28.163Z,4.70
2018-07-23T10:51:31.721Z,3.33
2018-07-23T10:52:35.288Z,4.42
2018-07-23T10:53:39.027Z,3.92
2018-07-23T10:54:42.787Z,4.65
2018-07-23T10:55:46.414Z,4.83
2018-07-23T10:56:50.092Z,4.95
2018-07-23T10:57:53.675Z,3.87
2018-07-23T10:58:58.322Z,4.72
2018-07-23T11:00:01.930Z,5.85
2018-07-23T11:01:05.420Z,4.37
2018-07-23T11:02:08.930Z,4.37
2018-07-23T11:03:15.283Z,3.87
2018-07-23T11:04:18.795Z,5.80
2018-07-23T11:05:23.444Z,4.92
2018-07-23T11:06:26.953Z,5.92
2018-07-23T11:07:30.492Z,4.85
2018-07-23T11:08:34.913Z,4.47
2018-07-23T11:09:38.492Z,6.35
2018-07-23T11:10:41.979Z,4.55
2018-07-23T11:11:45.532Z,6.33
2018-07-23T11:12:49.183Z,5.92
2018-07-23T11:13:52.745Z,4.65
2018-07-23T11:14:56.227Z,5.00
2018-07-23T11:15:59.749Z,5.40
2018-07-23T11:17:03.985Z,5.53
2018-07-23T11:18:07.644Z,4.50
2018-07-23T11:19:11.807Z,3.98
2018-07-23T11:20:16.093Z,6.90
2018-07-23T11:21:23.062Z,4.72
2018-07-23T11:22:28.036Z,4.15
2018-07-23T11:23:33.169Z,4.40
2018-07-23T11:24:36.723Z,4.40
2018-07-23T11:25:41.091Z,4.55
2018-07-23T11:26:44.303Z,4.53
2018-07-23T11:27:47.898Z,4.53
2018-07-23T11:28:51.428Z,5.05
2018-07-23T11:29:55.686Z,3.85
2018-07-23T11:30:59.216Z,4.87
2018-07-23T11:32:02.779Z,3.67
2018-07-23T11:33:06.325Z,4.37
2018-07-23T11:34:18.612Z,3.45
2018-07-23T11:35:22.127Z,4.12
2018-07-23T11:36:27.010Z,4.17
2018-07-23T11:37:30.541Z,5.97
2018-07-23T11:38:34.737Z,4.15
2018-07-23T11:39:38.313Z,4.22
2018-07-23T11:40:41.970Z,4.97
2018-07-23T11:41:45.492Z,4.90
2018-07-23T11:42:49.854Z,4.28
2018-07-23T11:43:53.423Z,3.83
2018-07-23T11:44:57.071Z,3.98
2018-07-23T11:46:00.574Z,3.55
2018-07-23T11:47:05.196Z,4.08
2018-07-23T11:48:08.830Z,4.50
2018-07-23T11:49:14.602Z,5.30
2018-07-23T11:50:24.001Z,3.27
2018-07-23T11:51:27.649Z,4.55
2018-07-23T11:52:31.410Z,4.55
2018-07-23T11:53:34.960Z,5.70
2018-07-23T11:54:38.526Z,3.55
2018-07-23T11:55:42.951Z,3.67
2018-07-23T11:56:46.541Z,4.00
2018-07-23T11:57:50.054Z,4.95
2018-07-23T11:58:53.519Z,4.25
2018-07-23T11:59:57.133Z,4.15
2018-07-23T12:01:01.024Z,5.37
2018-07-23T12:02:04.638Z,6.10
2018-07-23T12:03:08.253Z,3.92
2018-07-23T12:04:15.175Z,3.67
2018-07-23T12:05:20.031Z,6.45
2018-07-23T12:06:36.820Z,3.45
2018-07-23T12:08:01.023Z,3.58
2018-07-23T12:09:07.573Z,3.95
2018-07-23T12:10:21.739Z,6.30
2018-07-23T12:11:51.661Z,4.62
2018-07-23T12:13:30.568Z,5.03
2018-07-23T12:15:05.108Z,3.20
2018-07-23T12:16:42.810Z,3.62
2018-07-23T12:18:13.644Z,5.03
2018-07-23T12:19:42.890Z,4.12
2018-07-23T12:21:07.129Z,4.75
2018-07-23T12:22:39.257Z,5.22
2018-07-23T12:23:45.828Z,3.42
2018-07-23T12:25:08.321Z,4.78
2018-07-23T12:26:38.917Z,5.28
2018-07-23T12:27:59.212Z,4.83
2018-07-23T12:29:06.437Z,4.78
2018-07-23T12:30:39.394Z,3.60
2018-07-23T12:32:18.200Z,3.95
2018-07-23T12:33:28.669Z,3.12
2018-07-23T12:34:32.445Z,3.35
2018-07-23T12:35:41.737Z,6.17
2018-07-23T12:36:45.388Z,3.00
2018-07-23T12:37:49.189Z,3.80
2018-07-23T12:38:55.730Z,4.20
2018-07-23T12:39:59.441Z,3.72
2018-07-23T12:41:02.957Z,5.60
2018-07-23T12:42:06.156Z,3.40
2018-07-23T12:43:10.972Z,3.30
2018-07-23T12:44:18.001Z,5.47
2018-07-23T12:45:21.913Z,3.02
2018-07-23T12:46:25.645Z,3.70
2018-07-23T12:47:30.203Z,3.10
2018-07-23T12:48:33.713Z,4.37
2018-07-23T12:49:37.389Z,3.52
2018-07-23T12:50:41.052Z,4.00
2018-07-23T12:51:44.711Z,3.80
2018-07-23T12:52:48.989Z,4.72
2018-07-23T12:53:52.466Z,4.10
2018-07-23T12:54:56.033Z,5.70
2018-07-23T12:55:59.612Z,5.72
2018-07-23T12:57:03.293Z,3.90
2018-07-23T12:58:06.997Z,4.05
2018-07-23T12:59:10.676Z,4.35
2018-07-23T13:00:15.079Z,4.10
2018-07-23T13:01:18.642Z,4.85
2018-07-23T13:02:22.482Z,4.15
2018-07-23T13:03:26.101Z,5.17
2018-07-23T13:04:29.565Z,3.95
2018-07-23T13:05:33.811Z,3.30
2018-07-23T13:06:37.451Z,3.92
2018-07-23T13:07:41.165Z,4.10
2018-07-23T13:08:45.345Z,4.62
2018-07-23T13:09:48.851Z,4.20
2018-07-23T13:10:52.722Z,3.75
2018-07-23T13:11:56.677Z,3.55
2018-07-23T13:13:00.396Z,3.50
2018-07-23T13:14:03.927Z,3.40
2018-07-23T13:15:07.647Z,4.67
2018-07-23T13:16:11.262Z,3.60
2018-07-23T13:17:14.822Z,4.60
2018-07-23T13:18:18.591Z,3.30
2018-07-23T13:19:22.339Z,4.50
2018-07-23T13:20:25.809Z,4.37
2018-07-23T13:21:29.284Z,4.62
2018-07-23T13:22:32.812Z,3.98
2018-07-23T13:23:36.394Z,5.00
2018-07-23T13:24:39.906Z,3.55
2018-07-23T13:25:43.504Z,4.33
2018-07-23T13:26:47.072Z,3.83
2018-07-23T13:27:50.596Z,3.40
2018-07-23T13:28:54.825Z,3.22
2018-07-23T13:29:58.339Z,4.30
2018-07-23T13:31:02.641Z,4.47
2018-07-23T13:32:06.593Z,3.37
2018-07-23T13:33:10.131Z,3.77
2018-07-23T13:34:13.698Z,3.52
2018-07-23T13:35:18.160Z,5.17
2018-07-23T13:36:21.682Z,4.03
2018-07-23T13:37:25.504Z,5.85
2018-07-23T13:38:29.043Z,7.05
2018-07-23T13:39:33.422Z,4.22
2018-07-23T13:40:36.904Z,5.67
2018-07-23T13:41:40.724Z,4.33
2018-07-23T13:42:44.489Z,5.40
2018-07-23T13:43:48.025Z,4.75
2018-07-23T13:44:51.633Z,3.75
2018-07-23T13:45:55.169Z,5.20
2018-07-23T13:46:58.680Z,5.28
2018-07-23T13:48:02.745Z,5.05
2018-07-23T13:49:06.961Z,5.00
2018-07-23T13:50:14.378Z,3.80
2018-07-23T13:51:17.912Z,3.62
2018-07-23T13:52:21.475Z,3.30
2018-07-23T13:53:25.055Z,4.45
2018-07-23T13:54:28.600Z,3.83
2018-07-23T13:55:32.957Z,4.08
2018-07-23T13:56:36.510Z,4.85
2018-07-23T13:57:40.115Z,4.10
2018-07-23T13:58:43.607Z,3.92
2018-07-23T13:59:47.788Z,3.62
2018-07-23T14:00:52.083Z,6.15
2018-07-23T14:01:55.892Z,4.90